sensor_id;sensor_type;location;lat;lon;timestamp;P1;durP1;ratioP1;P2;durP2;ratioP2
13234;SDS011;6683;48.506;9.050;2022-08-23T00:02:18;3.17;;;2.77;;
13234;SDS011;6683;48.506;9.050;2022-08-23T00:05:21;4.03;;;2.73;;
13234;SDS011;6683;48.506;9.050;2022-08-23T00:08:23;2.83;;;2.60;;
13234;SDS011;6683;48.506;9.050;2022-08-23T00:11:27;2.97;;;2.63;;
13234;SDS011;6683;48.506;9.050;2022-08-23T00:14:35;3.60;;;2.57;;
13234;SDS011;6683;48.506;9.050;2022-08-23T00:17:40;3.17;;;2.90;;
13234;SDS011;6683;48.506;9.050;2022-08-23T00:20:43;3.10;;;2.67;;
13234;SDS011;6683;48.506;9.050;2022-08-23T00:23:45;3.30;;;3.00;;
13234;SDS011;6683;48.506;9.050;2022-08-23T00:26:49;3.80;;;2.70;;
13234;SDS011;6683;48.506;9.050;2022-08-23T00:29:59;4.37;;;3.00;;
13234;SDS011;6683;48.506;9.050;2022-08-23T00:33:05;3.87;;;2.87;;
13234;SDS011;6683;48.506;9.050;2022-08-23T00:36:07;3.73;;;3.00;;
13234;SDS011;6683;48.506;9.050;2022-08-23T00:39:10;4.30;;;3.10;;
13234;SDS011;6683;48.506;9.050;2022-08-23T00:42:14;3.50;;;3.20;;
13234;SDS011;6683;48.506;9.050;2022-08-23T00:45:49;3.90;;;3.00;;
13234;SDS011;6683;48.506;9.050;2022-08-23T00:49:19;3.53;;;2.83;;
13234;SDS011;6683;48.506;9.050;2022-08-23T00:52:24;3.20;;;2.90;;
13234;SDS011;6683;48.506;9.050;2022-08-23T00:55:33;3.63;;;2.73;;
13234;SDS011;6683;48.506;9.050;2022-08-23T00:58:37;2.90;;;2.70;;
13234;SDS011;6683;48.506;9.050;2022-08-23T01:01:41;3.17;;;2.80;;
13234;SDS011;6683;48.506;9.050;2022-08-23T01:04:46;2.70;;;2.50;;
13234;SDS011;6683;48.506;9.050;2022-08-23T01:07:55;3.10;;;2.80;;
13234;SDS011;6683;48.506;9.050;2022-08-23T01:10:59;2.90;;;2.70;;
13234;SDS011;6683;48.506;9.050;2022-08-23T01:14:09;3.97;;;2.73;;
13234;SDS011;6683;48.506;9.050;2022-08-23T01:17:19;3.07;;;2.67;;
13234;SDS011;6683;48.506;9.050;2022-08-23T01:20:29;3.70;;;3.30;;
13234;SDS011;6683;48.506;9.050;2022-08-23T01:23:40;3.13;;;2.80;;
13234;SDS011;6683;48.506;9.050;2022-08-23T01:26:46;5.03;;;2.50;;
13234;SDS011;6683;48.506;9.050;2022-08-23T01:29:49;3.10;;;2.80;;
13234;SDS011;6683;48.506;9.050;2022-08-23T01:32:53;4.27;;;3.20;;
13234;SDS011;6683;48.506;9.050;2022-08-23T01:35:59;3.00;;;2.80;;
13234;SDS011;6683;48.506;9.050;2022-08-23T01:39:04;3.73;;;3.00;;
13234;SDS011;6683;48.506;9.050;2022-08-23T01:42:08;3.37;;;2.70;;
13234;SDS011;6683;48.506;9.050;2022-08-23T01:45:12;3.47;;;2.87;;
13234;SDS011;6683;48.506;9.050;2022-08-23T01:48:15;3.93;;;3.03;;
13234;SDS011;6683;48.506;9.050;2022-08-23T01:51:20;3.43;;;3.10;;
13234;SDS011;6683;48.506;9.050;2022-08-23T01:54:24;3.30;;;2.90;;
13234;SDS011;6683;48.506;9.050;2022-08-23T01:57:28;3.70;;;3.37;;
13234;SDS011;6683;48.506;9.050;2022-08-23T02:00:32;3.47;;;3.17;;
13234;SDS011;6683;48.506;9.050;2022-08-23T02:03:38;2.90;;;2.70;;
13234;SDS011;6683;48.506;9.050;2022-08-23T02:06:40;3.37;;;3.07;;
13234;SDS011;6683;48.506;9.050;2022-08-23T02:09:44;3.70;;;3.07;;
13234;SDS011;6683;48.506;9.050;2022-08-23T02:12:46;3.30;;;2.90;;
13234;SDS011;6683;48.506;9.050;2022-08-23T02:15:49;3.43;;;3.13;;
13234;SDS011;6683;48.506;9.050;2022-08-23T02:18:52;3.50;;;2.80;;
13234;SDS011;6683;48.506;9.050;2022-08-23T02:21:56;3.43;;;3.13;;
13234;SDS011;6683;48.506;9.050;2022-08-23T02:24:59;4.77;;;3.30;;
13234;SDS011;6683;48.506;9.050;2022-08-23T02:28:02;3.73;;;3.17;;
13234;SDS011;6683;48.506;9.050;2022-08-23T02:31:05;2.87;;;2.67;;
13234;SDS011;6683;48.506;9.050;2022-08-23T02:34:07;3.03;;;2.83;;
13234;SDS011;6683;48.506;9.050;2022-08-23T02:37:11;3.43;;;3.13;;
13234;SDS011;6683;48.506;9.050;2022-08-23T02:40:16;3.40;;;3.00;;
13234;SDS011;6683;48.506;9.050;2022-08-23T02:43:19;3.13;;;2.93;;
13234;SDS011;6683;48.506;9.050;2022-08-23T02:46:21;3.13;;;2.83;;
13234;SDS011;6683;48.506;9.050;2022-08-23T02:49:24;3.30;;;3.00;;
13234;SDS011;6683;48.506;9.050;2022-08-23T02:52:27;3.43;;;3.13;;
13234;SDS011;6683;48.506;9.050;2022-08-23T02:55:31;3.90;;;3.10;;
13234;SDS011;6683;48.506;9.050;2022-08-23T02:58:34;4.63;;;3.60;;
13234;SDS011;6683;48.506;9.050;2022-08-23T03:01:37;5.47;;;3.17;;
13234;SDS011;6683;48.506;9.050;2022-08-23T03:04:40;3.80;;;2.73;;
13234;SDS011;6683;48.506;9.050;2022-08-23T03:07:43;4.30;;;3.67;;
13234;SDS011;6683;48.506;9.050;2022-08-23T03:10:48;3.13;;;2.83;;
13234;SDS011;6683;48.506;9.050;2022-08-23T03:13:52;3.30;;;3.00;;
13234;SDS011;6683;48.506;9.050;2022-08-23T03:16:56;3.30;;;3.00;;
13234;SDS011;6683;48.506;9.050;2022-08-23T03:19:59;3.33;;;3.03;;
13234;SDS011;6683;48.506;9.050;2022-08-23T03:23:01;2.97;;;2.77;;
13234;SDS011;6683;48.506;9.050;2022-08-23T03:26:06;3.30;;;3.00;;
13234;SDS011;6683;48.506;9.050;2022-08-23T03:29:11;3.07;;;2.87;;
13234;SDS011;6683;48.506;9.050;2022-08-23T03:32:14;3.60;;;3.17;;
13234;SDS011;6683;48.506;9.050;2022-08-23T03:35:17;3.50;;;3.20;;
13234;SDS011;6683;48.506;9.050;2022-08-23T03:38:19;4.33;;;3.20;;
13234;SDS011;6683;48.506;9.050;2022-08-23T03:41:23;4.00;;;3.07;;
13234;SDS011;6683;48.506;9.050;2022-08-23T03:44:27;4.23;;;3.07;;
13234;SDS011;6683;48.506;9.050;2022-08-23T03:47:29;3.40;;;3.10;;
13234;SDS011;6683;48.506;9.050;2022-08-23T03:50:31;3.70;;;3.13;;
13234;SDS011;6683;48.506;9.050;2022-08-23T03:53:35;5.53;;;3.63;;
13234;SDS011;6683;48.506;9.050;2022-08-23T03:56:43;3.63;;;3.33;;
13234;SDS011;6683;48.506;9.050;2022-08-23T03:59:53;5.13;;;3.47;;
13234;SDS011;6683;48.506;9.050;2022-08-23T04:02:58;3.60;;;3.30;;
13234;SDS011;6683;48.506;9.050;2022-08-23T04:06:01;4.47;;;3.70;;
13234;SDS011;6683;48.506;9.050;2022-08-23T04:09:03;3.57;;;3.27;;
13234;SDS011;6683;48.506;9.050;2022-08-23T04:12:07;3.67;;;3.37;;
13234;SDS011;6683;48.506;9.050;2022-08-23T04:15:10;3.53;;;3.23;;
13234;SDS011;6683;48.506;9.050;2022-08-23T04:18:12;3.33;;;3.03;;
13234;SDS011;6683;48.506;9.050;2022-08-23T04:21:15;6.33;;;3.40;;
13234;SDS011;6683;48.506;9.050;2022-08-23T04:24:21;3.60;;;3.30;;
13234;SDS011;6683;48.506;9.050;2022-08-23T04:27:25;3.53;;;3.10;;
13234;SDS011;6683;48.506;9.050;2022-08-23T04:30:28;3.80;;;3.43;;
13234;SDS011;6683;48.506;9.050;2022-08-23T04:33:31;3.93;;;3.23;;
13234;SDS011;6683;48.506;9.050;2022-08-23T04:36:36;5.30;;;3.40;;
13234;SDS011;6683;48.506;9.050;2022-08-23T04:39:41;4.10;;;3.70;;
13234;SDS011;6683;48.506;9.050;2022-08-23T04:43:02;3.80;;;3.50;;
13234;SDS011;6683;48.506;9.050;2022-08-23T04:46:05;3.67;;;3.17;;
13234;SDS011;6683;48.506;9.050;2022-08-23T04:49:09;3.77;;;3.43;;
13234;SDS011;6683;48.506;9.050;2022-08-23T04:52:12;4.50;;;3.47;;
13234;SDS011;6683;48.506;9.050;2022-08-23T04:55:15;4.30;;;3.93;;
13234;SDS011;6683;48.506;9.050;2022-08-23T04:58:19;4.30;;;3.10;;
13234;SDS011;6683;48.506;9.050;2022-08-23T05:01:21;3.63;;;2.87;;
13234;SDS011;6683;48.506;9.050;2022-08-23T05:04:25;3.90;;;3.23;;
13234;SDS011;6683;48.506;9.050;2022-08-23T05:07:27;4.10;;;3.30;;
13234;SDS011;6683;48.506;9.050;2022-08-23T05:10:30;3.67;;;3.27;;
13234;SDS011;6683;48.506;9.050;2022-08-23T05:13:34;3.57;;;3.27;;
13234;SDS011;6683;48.506;9.050;2022-08-23T05:16:39;3.50;;;3.20;;
13234;SDS011;6683;48.506;9.050;2022-08-23T05:19:41;4.80;;;3.47;;
13234;SDS011;6683;48.506;9.050;2022-08-23T05:22:43;3.67;;;3.37;;
13234;SDS011;6683;48.506;9.050;2022-08-23T05:25:46;3.67;;;3.07;;
13234;SDS011;6683;48.506;9.050;2022-08-23T05:28:52;3.37;;;3.13;;
13234;SDS011;6683;48.506;9.050;2022-08-23T05:31:55;4.97;;;3.90;;
13234;SDS011;6683;48.506;9.050;2022-08-23T05:34:57;3.83;;;3.43;;
13234;SDS011;6683;48.506;9.050;2022-08-23T05:38:00;4.40;;;4.00;;
13234;SDS011;6683;48.506;9.050;2022-08-23T05:41:03;4.20;;;3.67;;
13234;SDS011;6683;48.506;9.050;2022-08-23T05:44:08;4.20;;;3.80;;
13234;SDS011;6683;48.506;9.050;2022-08-23T05:47:11;4.00;;;3.60;;
13234;SDS011;6683;48.506;9.050;2022-08-23T05:50:17;4.77;;;3.70;;
13234;SDS011;6683;48.506;9.050;2022-08-23T05:53:21;4.07;;;3.67;;
13234;SDS011;6683;48.506;9.050;2022-08-23T05:56:25;4.30;;;3.90;;
13234;SDS011;6683;48.506;9.050;2022-08-23T05:59:31;4.50;;;4.10;;
13234;SDS011;6683;48.506;9.050;2022-08-23T06:02:34;4.37;;;3.97;;
13234;SDS011;6683;48.506;9.050;2022-08-23T06:05:37;4.57;;;4.17;;
13234;SDS011;6683;48.506;9.050;2022-08-23T06:08:41;4.93;;;4.30;;
13234;SDS011;6683;48.506;9.050;2022-08-23T06:11:46;4.90;;;4.40;;
13234;SDS011;6683;48.506;9.050;2022-08-23T06:14:51;4.63;;;4.23;;
13234;SDS011;6683;48.506;9.050;2022-08-23T06:17:53;4.67;;;3.87;;
13234;SDS011;6683;48.506;9.050;2022-08-23T06:20:59;4.70;;;4.30;;
13234;SDS011;6683;48.506;9.050;2022-08-23T06:24:03;4.83;;;4.33;;
13234;SDS011;6683;48.506;9.050;2022-08-23T06:27:07;4.53;;;4.13;;
13234;SDS011;6683;48.506;9.050;2022-08-23T06:30:12;4.30;;;3.90;;
13234;SDS011;6683;48.506;9.050;2022-08-23T06:33:14;4.20;;;3.80;;
13234;SDS011;6683;48.506;9.050;2022-08-23T06:36:17;4.63;;;4.13;;
13234;SDS011;6683;48.506;9.050;2022-08-23T06:39:20;4.77;;;4.03;;
13234;SDS011;6683;48.506;9.050;2022-08-23T06:42:24;4.50;;;4.10;;
13234;SDS011;6683;48.506;9.050;2022-08-23T06:45:27;4.97;;;3.97;;
13234;SDS011;6683;48.506;9.050;2022-08-23T06:48:30;4.13;;;3.80;;
13234;SDS011;6683;48.506;9.050;2022-08-23T06:51:34;5.30;;;4.43;;
13234;SDS011;6683;48.506;9.050;2022-08-23T06:54:39;6.07;;;4.13;;
13234;SDS011;6683;48.506;9.050;2022-08-23T06:57:43;4.63;;;4.20;;
13234;SDS011;6683;48.506;9.050;2022-08-23T07:00:47;4.47;;;3.77;;
13234;SDS011;6683;48.506;9.050;2022-08-23T07:03:51;7.07;;;3.70;;
13234;SDS011;6683;48.506;9.050;2022-08-23T07:06:56;5.37;;;4.23;;
13234;SDS011;6683;48.506;9.050;2022-08-23T07:10:00;5.10;;;3.83;;
13234;SDS011;6683;48.506;9.050;2022-08-23T07:13:03;5.40;;;4.07;;
13234;SDS011;6683;48.506;9.050;2022-08-23T07:16:07;4.60;;;3.70;;
13234;SDS011;6683;48.506;9.050;2022-08-23T07:19:10;4.27;;;3.87;;
13234;SDS011;6683;48.506;9.050;2022-08-23T07:22:13;3.60;;;3.30;;
13234;SDS011;6683;48.506;9.050;2022-08-23T07:25:15;6.03;;;3.97;;
13234;SDS011;6683;48.506;9.050;2022-08-23T07:28:18;3.40;;;3.03;;
13234;SDS011;6683;48.506;9.050;2022-08-23T07:31:23;4.50;;;4.10;;
13234;SDS011;6683;48.506;9.050;2022-08-23T07:34:29;3.93;;;3.53;;
13234;SDS011;6683;48.506;9.050;2022-08-23T07:37:32;3.80;;;3.40;;
13234;SDS011;6683;48.506;9.050;2022-08-23T07:40:34;4.20;;;3.50;;
13234;SDS011;6683;48.506;9.050;2022-08-23T07:43:37;5.17;;;3.40;;
13234;SDS011;6683;48.506;9.050;2022-08-23T07:46:43;4.50;;;3.10;;
13234;SDS011;6683;48.506;9.050;2022-08-23T07:49:46;3.13;;;2.83;;
13234;SDS011;6683;48.506;9.050;2022-08-23T07:52:50;2.92;;;2.65;;
13234;SDS011;6683;48.506;9.050;2022-08-23T07:55:52;3.17;;;2.83;;
13234;SDS011;6683;48.506;9.050;2022-08-23T07:58:55;2.67;;;2.47;;
13234;SDS011;6683;48.506;9.050;2022-08-23T08:01:59;2.50;;;2.30;;
13234;SDS011;6683;48.506;9.050;2022-08-23T08:05:02;2.58;;;2.38;;
13234;SDS011;6683;48.506;9.050;2022-08-23T08:08:05;2.95;;;2.55;;
13234;SDS011;6683;48.506;9.050;2022-08-23T08:11:09;3.75;;;2.65;;
13234;SDS011;6683;48.506;9.050;2022-08-23T08:14:14;2.70;;;2.50;;
13234;SDS011;6683;48.506;9.050;2022-08-23T08:17:19;2.83;;;2.55;;
13234;SDS011;6683;48.506;9.050;2022-08-23T08:20:21;3.08;;;2.30;;
13234;SDS011;6683;48.506;9.050;2022-08-23T08:23:25;2.10;;;1.90;;
13234;SDS011;6683;48.506;9.050;2022-08-23T08:26:28;3.00;;;2.10;;
13234;SDS011;6683;48.506;9.050;2022-08-23T08:29:31;2.85;;;1.80;;
13234;SDS011;6683;48.506;9.050;2022-08-23T08:32:35;3.00;;;2.00;;
13234;SDS011;6683;48.506;9.050;2022-08-23T08:35:39;2.10;;;1.80;;
13234;SDS011;6683;48.506;9.050;2022-08-23T08:38:41;2.38;;;1.85;;
13234;SDS011;6683;48.506;9.050;2022-08-23T08:41:48;4.38;;;2.08;;
13234;SDS011;6683;48.506;9.050;2022-08-23T08:45:04;3.08;;;2.00;;
13234;SDS011;6683;48.506;9.050;2022-08-23T08:48:13;2.08;;;1.88;;
13234;SDS011;6683;48.506;9.050;2022-08-23T08:51:25;2.22;;;2.00;;
13234;SDS011;6683;48.506;9.050;2022-08-23T08:54:39;3.03;;;2.10;;
13234;SDS011;6683;48.506;9.050;2022-08-23T08:57:43;1.65;;;1.50;;
13234;SDS011;6683;48.506;9.050;2022-08-23T09:00:48;2.22;;;1.90;;
13234;SDS011;6683;48.506;9.050;2022-08-23T09:03:52;1.83;;;1.67;;
13234;SDS011;6683;48.506;9.050;2022-08-23T09:06:57;2.22;;;2.03;;
13234;SDS011;6683;48.506;9.050;2022-08-23T09:10:16;1.85;;;1.75;;
13234;SDS011;6683;48.506;9.050;2022-08-23T09:13:45;2.10;;;1.90;;
13234;SDS011;6683;48.506;9.050;2022-08-23T09:17:08;1.55;;;1.45;;
13234;SDS011;6683;48.506;9.050;2022-08-23T09:20:23;3.53;;;1.60;;
13234;SDS011;6683;48.506;9.050;2022-08-23T09:23:31;1.80;;;1.70;;
13234;SDS011;6683;48.506;9.050;2022-08-23T09:26:38;1.88;;;1.60;;
13234;SDS011;6683;48.506;9.050;2022-08-23T09:29:50;1.60;;;1.50;;
13234;SDS011;6683;48.506;9.050;2022-08-23T09:32:55;2.25;;;1.50;;
13234;SDS011;6683;48.506;9.050;2022-08-23T09:36:20;1.60;;;1.50;;
13234;SDS011;6683;48.506;9.050;2022-08-23T09:39:28;3.38;;;1.27;;
13234;SDS011;6683;48.506;9.050;2022-08-23T09:42:33;1.70;;;1.42;;
13234;SDS011;6683;48.506;9.050;2022-08-23T09:45:39;2.30;;;1.70;;
13234;SDS011;6683;48.506;9.050;2022-08-23T09:48:56;1.80;;;1.70;;
13234;SDS011;6683;48.506;9.050;2022-08-23T09:52:10;1.77;;;1.58;;
13234;SDS011;6683;48.506;9.050;2022-08-23T09:55:28;1.75;;;1.60;;
13234;SDS011;6683;48.506;9.050;2022-08-23T09:58:35;2.00;;;1.50;;
13234;SDS011;6683;48.506;9.050;2022-08-23T10:01:40;2.13;;;1.33;;
13234;SDS011;6683;48.506;9.050;2022-08-23T10:04:54;2.42;;;1.63;;
13234;SDS011;6683;48.506;9.050;2022-08-23T10:08:02;1.52;;;1.40;;
13234;SDS011;6683;48.506;9.050;2022-08-23T10:11:09;2.38;;;1.48;;
13234;SDS011;6683;48.506;9.050;2022-08-23T10:14:19;1.58;;;1.40;;
13234;SDS011;6683;48.506;9.050;2022-08-23T10:17:26;2.70;;;1.45;;
13234;SDS011;6683;48.506;9.050;2022-08-23T10:20:37;3.08;;;1.55;;
13234;SDS011;6683;48.506;9.050;2022-08-23T10:23:56;1.90;;;1.35;;
13234;SDS011;6683;48.506;9.050;2022-08-23T10:27:26;1.63;;;1.42;;
13234;SDS011;6683;48.506;9.050;2022-08-23T10:31:07;1.63;;;1.30;;
13234;SDS011;6683;48.506;9.050;2022-08-23T10:34:30;2.10;;;1.60;;
13234;SDS011;6683;48.506;9.050;2022-08-23T10:37:49;2.10;;;1.45;;
13234;SDS011;6683;48.506;9.050;2022-08-23T10:41:10;2.50;;;1.45;;
13234;SDS011;6683;48.506;9.050;2022-08-23T10:44:46;1.63;;;1.52;;
13234;SDS011;6683;48.506;9.050;2022-08-23T10:48:02;2.47;;;1.60;;
13234;SDS011;6683;48.506;9.050;2022-08-23T10:51:22;1.48;;;1.38;;
13234;SDS011;6683;48.506;9.050;2022-08-23T10:54:30;1.30;;;1.20;;
13234;SDS011;6683;48.506;9.050;2022-08-23T10:57:46;1.85;;;1.65;;
13234;SDS011;6683;48.506;9.050;2022-08-23T11:00:50;1.80;;;1.40;;
13234;SDS011;6683;48.506;9.050;2022-08-23T11:03:58;2.30;;;1.45;;
13234;SDS011;6683;48.506;9.050;2022-08-23T11:07:13;1.55;;;1.45;;
13234;SDS011;6683;48.506;9.050;2022-08-23T11:10:24;1.80;;;1.30;;
13234;SDS011;6683;48.506;9.050;2022-08-23T11:13:33;1.60;;;1.50;;
13234;SDS011;6683;48.506;9.050;2022-08-23T11:16:36;1.50;;;1.40;;
13234;SDS011;6683;48.506;9.050;2022-08-23T11:19:46;1.38;;;1.27;;
13234;SDS011;6683;48.506;9.050;2022-08-23T11:23:11;2.00;;;1.70;;
13234;SDS011;6683;48.506;9.050;2022-08-23T11:33:47;3.30;;;1.73;;
13234;SDS011;6683;48.506;9.050;2022-08-23T11:47:38;1.60;;;1.50;;
13234;SDS011;6683;48.506;9.050;2022-08-23T11:50:47;1.58;;;1.48;;
13234;SDS011;6683;48.506;9.050;2022-08-23T11:57:47;2.00;;;1.80;;
13234;SDS011;6683;48.506;9.050;2022-08-23T12:01:12;1.67;;;1.30;;
13234;SDS011;6683;48.506;9.050;2022-08-23T12:04:29;1.35;;;1.25;;
13234;SDS011;6683;48.506;9.050;2022-08-23T12:07:42;1.70;;;1.60;;
13234;SDS011;6683;48.506;9.050;2022-08-23T12:10:59;1.83;;;1.30;;
13234;SDS011;6683;48.506;9.050;2022-08-23T12:17:53;1.50;;;1.40;;
13234;SDS011;6683;48.506;9.050;2022-08-23T12:21:17;1.48;;;1.38;;
13234;SDS011;6683;48.506;9.050;2022-08-23T12:24:27;1.52;;;1.42;;
13234;SDS011;6683;48.506;9.050;2022-08-23T12:27:36;2.13;;;1.35;;
13234;SDS011;6683;48.506;9.050;2022-08-23T12:30:49;1.65;;;1.55;;
13234;SDS011;6683;48.506;9.050;2022-08-23T12:34:01;1.40;;;1.30;;
13234;SDS011;6683;48.506;9.050;2022-08-23T12:37:19;1.40;;;1.20;;
13234;SDS011;6683;48.506;9.050;2022-08-23T12:40:32;1.40;;;1.30;;
13234;SDS011;6683;48.506;9.050;2022-08-23T12:43:38;1.67;;;1.52;;
13234;SDS011;6683;48.506;9.050;2022-08-23T12:46:56;1.50;;;1.40;;
13234;SDS011;6683;48.506;9.050;2022-08-23T12:50:18;1.45;;;1.27;;
13234;SDS011;6683;48.506;9.050;2022-08-23T12:53:29;1.60;;;1.50;;
13234;SDS011;6683;48.506;9.050;2022-08-23T12:56:33;1.40;;;1.30;;
13234;SDS011;6683;48.506;9.050;2022-08-23T12:59:39;1.70;;;1.60;;
13234;SDS011;6683;48.506;9.050;2022-08-23T13:02:48;3.17;;;1.58;;
13234;SDS011;6683;48.506;9.050;2022-08-23T13:05:58;1.42;;;1.33;;
13234;SDS011;6683;48.506;9.050;2022-08-23T13:09:06;1.65;;;1.52;;
13234;SDS011;6683;48.506;9.050;2022-08-23T13:12:13;1.45;;;1.35;;
13234;SDS011;6683;48.506;9.050;2022-08-23T13:15:41;1.45;;;1.35;;
13234;SDS011;6683;48.506;9.050;2022-08-23T13:18:51;2.90;;;1.45;;
13234;SDS011;6683;48.506;9.050;2022-08-23T13:22:08;2.45;;;1.30;;
13234;SDS011;6683;48.506;9.050;2022-08-23T13:25:23;1.75;;;1.50;;
13234;SDS011;6683;48.506;9.050;2022-08-23T13:28:28;1.75;;;1.65;;
13234;SDS011;6683;48.506;9.050;2022-08-23T13:31:47;2.00;;;1.60;;
13234;SDS011;6683;48.506;9.050;2022-08-23T13:34:59;1.67;;;1.58;;
13234;SDS011;6683;48.506;9.050;2022-08-23T13:38:42;2.75;;;1.58;;
13234;SDS011;6683;48.506;9.050;2022-08-23T13:41:47;1.95;;;1.50;;
13234;SDS011;6683;48.506;9.050;2022-08-23T13:44:49;1.50;;;1.40;;
13234;SDS011;6683;48.506;9.050;2022-08-23T13:47:54;2.92;;;1.50;;
13234;SDS011;6683;48.506;9.050;2022-08-23T13:51:19;1.80;;;1.40;;
13234;SDS011;6683;48.506;9.050;2022-08-23T13:54:28;1.60;;;1.50;;
13234;SDS011;6683;48.506;9.050;2022-08-23T13:57:36;1.60;;;1.50;;
13234;SDS011;6683;48.506;9.050;2022-08-23T14:00:40;3.60;;;1.55;;
13234;SDS011;6683;48.506;9.050;2022-08-23T14:03:42;1.95;;;1.70;;
13234;SDS011;6683;48.506;9.050;2022-08-23T14:06:46;2.25;;;1.50;;
13234;SDS011;6683;48.506;9.050;2022-08-23T14:09:48;1.52;;;1.42;;
13234;SDS011;6683;48.506;9.050;2022-08-23T14:12:52;2.20;;;1.40;;
13234;SDS011;6683;48.506;9.050;2022-08-23T14:15:56;1.30;;;1.30;;
13234;SDS011;6683;48.506;9.050;2022-08-23T14:19:05;2.38;;;1.30;;
13234;SDS011;6683;48.506;9.050;2022-08-23T14:22:11;1.42;;;1.33;;
13234;SDS011;6683;48.506;9.050;2022-08-23T14:25:15;1.95;;;1.40;;
13234;SDS011;6683;48.506;9.050;2022-08-23T14:28:19;1.50;;;1.40;;
13234;SDS011;6683;48.506;9.050;2022-08-23T14:31:23;1.20;;;1.10;;
13234;SDS011;6683;48.506;9.050;2022-08-23T14:34:26;2.20;;;1.63;;
13234;SDS011;6683;48.506;9.050;2022-08-23T14:37:30;1.52;;;1.42;;
13234;SDS011;6683;48.506;9.050;2022-08-23T14:40:32;1.30;;;1.20;;
13234;SDS011;6683;48.506;9.050;2022-08-23T14:43:38;2.22;;;1.60;;
13234;SDS011;6683;48.506;9.050;2022-08-23T14:46:41;1.83;;;1.40;;
13234;SDS011;6683;48.506;9.050;2022-08-23T14:49:44;1.42;;;1.33;;
13234;SDS011;6683;48.506;9.050;2022-08-23T14:52:47;2.05;;;1.38;;
13234;SDS011;6683;48.506;9.050;2022-08-23T14:55:49;1.40;;;1.30;;
13234;SDS011;6683;48.506;9.050;2022-08-23T14:58:54;1.50;;;1.33;;
13234;SDS011;6683;48.506;9.050;2022-08-23T15:01:56;2.95;;;1.35;;
13234;SDS011;6683;48.506;9.050;2022-08-23T15:04:59;1.30;;;1.20;;
13234;SDS011;6683;48.506;9.050;2022-08-23T15:08:02;1.20;;;1.00;;
13234;SDS011;6683;48.506;9.050;2022-08-23T15:11:05;1.52;;;1.30;;
13234;SDS011;6683;48.506;9.050;2022-08-23T15:14:10;1.48;;;1.38;;
13234;SDS011;6683;48.506;9.050;2022-08-23T15:17:13;1.52;;;1.30;;
13234;SDS011;6683;48.506;9.050;2022-08-23T15:20:16;3.45;;;1.40;;
13234;SDS011;6683;48.506;9.050;2022-08-23T15:23:20;1.63;;;1.52;;
13234;SDS011;6683;48.506;9.050;2022-08-23T15:26:23;1.30;;;1.20;;
13234;SDS011;6683;48.506;9.050;2022-08-23T15:29:30;1.60;;;1.50;;
13234;SDS011;6683;48.506;9.050;2022-08-23T15:32:32;1.42;;;1.25;;
13234;SDS011;6683;48.506;9.050;2022-08-23T15:35:36;2.75;;;1.50;;
13234;SDS011;6683;48.506;9.050;2022-08-23T15:38:42;1.08;;;1.08;;
13234;SDS011;6683;48.506;9.050;2022-08-23T15:41:47;1.20;;;1.10;;
13234;SDS011;6683;48.506;9.050;2022-08-23T15:44:51;2.80;;;1.40;;
13234;SDS011;6683;48.506;9.050;2022-08-23T15:47:54;1.42;;;1.33;;
13234;SDS011;6683;48.506;9.050;2022-08-23T15:51:00;1.20;;;1.20;;
13234;SDS011;6683;48.506;9.050;2022-08-23T15:54:04;2.10;;;1.42;;
13234;SDS011;6683;48.506;9.050;2022-08-23T15:57:08;2.70;;;1.40;;
13234;SDS011;6683;48.506;9.050;2022-08-23T16:00:18;2.22;;;1.30;;
13234;SDS011;6683;48.506;9.050;2022-08-23T16:03:23;1.20;;;1.10;;
13234;SDS011;6683;48.506;9.050;2022-08-23T16:06:26;1.67;;;1.52;;
13234;SDS011;6683;48.506;9.050;2022-08-23T16:09:29;1.55;;;1.45;;
13234;SDS011;6683;48.506;9.050;2022-08-23T16:12:33;2.08;;;1.23;;
13234;SDS011;6683;48.506;9.050;2022-08-23T16:15:37;1.50;;;1.40;;
13234;SDS011;6683;48.506;9.050;2022-08-23T16:18:40;1.77;;;1.30;;
13234;SDS011;6683;48.506;9.050;2022-08-23T16:21:43;1.40;;;1.30;;
13234;SDS011;6683;48.506;9.050;2022-08-23T16:24:46;1.50;;;1.40;;
13234;SDS011;6683;48.506;9.050;2022-08-23T16:27:49;1.40;;;1.30;;
13234;SDS011;6683;48.506;9.050;2022-08-23T16:30:53;1.30;;;1.15;;
13234;SDS011;6683;48.506;9.050;2022-08-23T16:33:55;1.30;;;1.20;;
13234;SDS011;6683;48.506;9.050;2022-08-23T16:37:00;1.45;;;1.20;;
13234;SDS011;6683;48.506;9.050;2022-08-23T16:40:06;2.08;;;1.23;;
13234;SDS011;6683;48.506;9.050;2022-08-23T16:43:10;2.25;;;1.50;;
13234;SDS011;6683;48.506;9.050;2022-08-23T16:46:14;2.38;;;1.30;;
13234;SDS011;6683;48.506;9.050;2022-08-23T16:49:17;1.92;;;1.20;;
13234;SDS011;6683;48.506;9.050;2022-08-23T16:52:21;1.42;;;1.30;;
13234;SDS011;6683;48.506;9.050;2022-08-23T16:55:23;1.30;;;1.20;;
13234;SDS011;6683;48.506;9.050;2022-08-23T16:58:25;1.77;;;1.38;;
13234;SDS011;6683;48.506;9.050;2022-08-23T17:01:31;1.30;;;1.20;;
13234;SDS011;6683;48.506;9.050;2022-08-23T17:04:46;1.85;;;1.40;;
13234;SDS011;6683;48.506;9.050;2022-08-23T17:07:48;1.33;;;1.17;;
13234;SDS011;6683;48.506;9.050;2022-08-23T17:10:53;1.50;;;1.40;;
13234;SDS011;6683;48.506;9.050;2022-08-23T17:13:55;2.10;;;1.30;;
13234;SDS011;6683;48.506;9.050;2022-08-23T17:16:59;1.85;;;1.65;;
13234;SDS011;6683;48.506;9.050;2022-08-23T17:20:02;1.40;;;1.30;;
13234;SDS011;6683;48.506;9.050;2022-08-23T17:23:07;1.52;;;1.15;;
13234;SDS011;6683;48.506;9.050;2022-08-23T17:26:10;1.60;;;1.30;;
13234;SDS011;6683;48.506;9.050;2022-08-23T17:29:13;1.45;;;1.30;;
13234;SDS011;6683;48.506;9.050;2022-08-23T17:32:17;1.58;;;1.48;;
13234;SDS011;6683;48.506;9.050;2022-08-23T17:35:22;1.55;;;1.42;;
13234;SDS011;6683;48.506;9.050;2022-08-23T17:38:27;1.95;;;1.27;;
13234;SDS011;6683;48.506;9.050;2022-08-23T17:41:30;1.30;;;1.20;;
13234;SDS011;6683;48.506;9.050;2022-08-23T17:44:32;1.65;;;1.30;;
13234;SDS011;6683;48.506;9.050;2022-08-23T17:47:37;1.55;;;1.45;;
13234;SDS011;6683;48.506;9.050;2022-08-23T17:50:40;2.55;;;1.63;;
13234;SDS011;6683;48.506;9.050;2022-08-23T17:53:43;2.80;;;1.27;;
13234;SDS011;6683;48.506;9.050;2022-08-23T17:56:45;1.85;;;1.20;;
13234;SDS011;6683;48.506;9.050;2022-08-23T17:59:48;1.58;;;1.40;;
13234;SDS011;6683;48.506;9.050;2022-08-23T18:02:52;2.25;;;1.25;;
13234;SDS011;6683;48.506;9.050;2022-08-23T18:05:55;2.20;;;1.40;;
13234;SDS011;6683;48.506;9.050;2022-08-23T18:08:58;1.45;;;1.27;;
13234;SDS011;6683;48.506;9.050;2022-08-23T18:12:02;1.88;;;1.30;;
13234;SDS011;6683;48.506;9.050;2022-08-23T18:15:05;1.70;;;1.42;;
13234;SDS011;6683;48.506;9.050;2022-08-23T18:18:11;1.70;;;1.45;;
13234;SDS011;6683;48.506;9.050;2022-08-23T18:21:13;2.75;;;1.42;;
13234;SDS011;6683;48.506;9.050;2022-08-23T18:24:16;2.55;;;1.40;;
13234;SDS011;6683;48.506;9.050;2022-08-23T18:27:19;1.30;;;1.20;;
13234;SDS011;6683;48.506;9.050;2022-08-23T18:30:36;1.77;;;1.20;;
13234;SDS011;6683;48.506;9.050;2022-08-23T18:33:47;3.63;;;1.35;;
13234;SDS011;6683;48.506;9.050;2022-08-23T18:36:49;1.60;;;1.27;;
13234;SDS011;6683;48.506;9.050;2022-08-23T18:39:52;2.28;;;1.40;;
13234;SDS011;6683;48.506;9.050;2022-08-23T18:42:55;2.50;;;1.30;;
13234;SDS011;6683;48.506;9.050;2022-08-23T18:45:58;2.03;;;1.48;;
13234;SDS011;6683;48.506;9.050;2022-08-23T18:49:02;1.60;;;1.35;;
13234;SDS011;6683;48.506;9.050;2022-08-23T18:52:06;2.03;;;1.42;;
13234;SDS011;6683;48.506;9.050;2022-08-23T18:55:09;1.88;;;1.33;;
13234;SDS011;6683;48.506;9.050;2022-08-23T18:58:12;3.65;;;1.50;;
13234;SDS011;6683;48.506;9.050;2022-08-23T19:01:18;1.80;;;1.42;;
13234;SDS011;6683;48.506;9.050;2022-08-23T19:04:26;1.30;;;1.20;;
13234;SDS011;6683;48.506;9.050;2022-08-23T19:07:29;2.47;;;1.30;;
13234;SDS011;6683;48.506;9.050;2022-08-23T19:10:32;1.63;;;1.40;;
13234;SDS011;6683;48.506;9.050;2022-08-23T19:13:35;1.98;;;1.70;;
13234;SDS011;6683;48.506;9.050;2022-08-23T19:16:38;2.00;;;1.50;;
13234;SDS011;6683;48.506;9.050;2022-08-23T19:19:43;2.35;;;1.38;;
13234;SDS011;6683;48.506;9.050;2022-08-23T19:22:45;2.28;;;1.50;;
13234;SDS011;6683;48.506;9.050;2022-08-23T19:25:47;2.30;;;1.40;;